createdAt,value
2018-08-24T06:44:36.445Z,100
2018-08-24T06:44:56.695Z,100
2018-08-24T06:45:16.862Z,100
2018-08-24T06:45:37.029Z,100
2018-08-24T06:45:57.203Z,100
2018-08-24T06:46:18.065Z,100
2018-08-24T06:46:38.223Z,100
2018-08-24T06:46:58.384Z,100
2018-08-24T06:47:18.765Z,100
2018-08-24T06:47:39.027Z,100
2018-08-24T06:47:59.104Z,100
2018-08-24T06:48:19.403Z,100
2018-08-24T06:48:39.612Z,100
2018-08-24T06:48:59.778Z,100
2018-08-24T06:49:20.788Z,100
2018-08-24T06:49:40.961Z,100
2018-08-24T06:50:01.140Z,100
2018-08-24T06:50:21.503Z,100
2018-08-24T06:50:45.368Z,100
2018-08-24T06:51:05.555Z,100
2018-08-24T06:51:25.763Z,100
2018-08-24T06:51:45.927Z,100
2018-08-24T06:52:06.101Z,100
2018-08-24T06:52:26.307Z,100
2018-08-24T06:52:46.487Z,100
2018-08-24T06:53:06.779Z,100
2018-08-24T06:53:27.209Z,100
2018-08-24T06:53:47.518Z,100
2018-08-24T06:54:07.764Z,100
2018-08-24T06:54:27.917Z,100
2018-08-24T06:54:48.172Z,100
2018-08-24T06:55:08.338Z,100
2018-08-24T06:55:28.542Z,100
2018-08-24T06:55:48.729Z,100
2018-08-24T06:56:08.954Z,100
2018-08-24T06:56:29.112Z,100
2018-08-24T06:56:49.317Z,100
2018-08-24T06:57:09.511Z,100
2018-08-24T06:57:29.769Z,100
2018-08-24T06:57:49.966Z,100
2018-08-24T06:58:10.124Z,100
2018-08-24T06:58:30.369Z,100
2018-08-24T06:58:50.531Z,100
2018-08-24T06:59:10.766Z,100
2018-08-24T06:59:31.006Z,100
2018-08-24T06:59:51.248Z,100
2018-08-24T07:00:11.460Z,100
2018-08-24T07:00:32.246Z,100
2018-08-24T07:00:52.511Z,100
2018-08-24T07:01:12.723Z,100
2018-08-24T07:01:32.856Z,100
2018-08-24T07:01:53.092Z,100
2018-08-24T07:02:13.326Z,100
2018-08-24T07:02:33.513Z,100
2018-08-24T07:02:53.647Z,100
2018-08-24T07:03:13.845Z,100
2018-08-24T07:03:34.071Z,100
2018-08-24T07:03:54.253Z,100
2018-08-24T07:04:14.463Z,100
2018-08-24T07:04:34.829Z,100
2018-08-24T07:04:55.050Z,100
2018-08-24T07:05:15.262Z,100
2018-08-24T07:05:35.525Z,100
2018-08-24T07:05:55.788Z,100
2018-08-24T07:06:15.909Z,100
2018-08-24T07:06:36.071Z,100
2018-08-24T07:06:56.246Z,100
2018-08-24T07:07:16.380Z,100
2018-08-24T07:07:36.518Z,100
2018-08-24T07:07:56.701Z,100
2018-08-24T07:08:16.868Z,100
2018-08-24T07:08:37.058Z,100
2018-08-24T07:08:57.300Z,100
2018-08-24T07:09:17.478Z,100
2018-08-24T07:09:37.698Z,100
2018-08-24T07:09:57.919Z,100
2018-08-24T07:10:18.102Z,100
2018-08-24T07:10:38.315Z,100
2018-08-24T07:10:58.556Z,100
2018-08-24T07:11:18.755Z,100
2018-08-24T07:11:39.029Z,100
2018-08-24T07:11:59.178Z,100
2018-08-24T07:12:19.336Z,100
2018-08-24T07:12:39.513Z,100
2018-08-24T07:12:59.779Z,100
2018-08-24T07:13:19.978Z,100
2018-08-24T07:13:40.219Z,100
2018-08-24T07:14:00.388Z,100
2018-08-24T07:14:20.593Z,100
2018-08-24T07:14:40.860Z,100
2018-08-24T07:15:01.084Z,100
2018-08-24T07:15:21.309Z,100
2018-08-24T07:15:41.570Z,100
2018-08-24T07:16:01.825Z,100
2018-08-24T07:16:22.077Z,100
2018-08-24T07:16:42.311Z,100
2018-08-24T07:17:02.516Z,100
2018-08-24T07:17:22.712Z,100
2018-08-24T07:17:42.857Z,100
2018-08-24T07:18:03.038Z,100
2018-08-24T07:18:23.318Z,100
2018-08-24T07:18:43.570Z,100
2018-08-24T07:19:03.765Z,100
2018-08-24T07:19:24.060Z,100
2018-08-24T07:19:44.281Z,100
2018-08-24T07:20:04.521Z,100
2018-08-24T07:20:24.736Z,100
2018-08-24T07:20:44.969Z,100
2018-08-24T07:21:05.174Z,100
2018-08-24T07:21:25.481Z,100
2018-08-24T07:21:45.726Z,100
2018-08-24T07:22:05.950Z,100
2018-08-24T07:22:26.194Z,100
2018-08-24T07:22:46.444Z,100
2018-08-24T07:23:06.673Z,100
2018-08-24T07:23:26.999Z,100
2018-08-24T07:23:47.265Z,100
2018-08-24T07:24:07.541Z,100
2018-08-24T07:24:27.762Z,100
2018-08-24T07:24:47.906Z,100
2018-08-24T07:25:08.189Z,100
2018-08-24T07:25:28.492Z,100
2018-08-24T07:25:48.769Z,100
2018-08-24T07:26:09.074Z,100
2018-08-24T07:26:29.407Z,100
2018-08-24T07:26:49.679Z,100
2018-08-24T07:27:09.941Z,100
2018-08-24T07:27:30.213Z,100
2018-08-24T07:27:50.460Z,100
2018-08-24T07:28:10.658Z,100
2018-08-24T07:28:30.909Z,100
2018-08-24T07:28:51.121Z,100
2018-08-24T07:29:12.202Z,100
2018-08-24T07:29:32.606Z,100
2018-08-24T07:29:53.790Z,100
2018-08-24T07:30:14.009Z,100
2018-08-24T07:30:34.178Z,100
2018-08-24T07:30:54.633Z,100
2018-08-24T07:31:14.867Z,100
2018-08-24T07:31:35.165Z,100
2018-08-24T07:31:55.412Z,100
2018-08-24T07:32:15.673Z,100
2018-08-24T07:32:35.951Z,100
2018-08-24T07:32:56.138Z,100
2018-08-24T07:33:16.385Z,100
2018-08-24T07:33:36.693Z,100
2018-08-24T07:33:56.923Z,100
2018-08-24T07:34:17.109Z,100
2018-08-24T07:34:37.314Z,100
2018-08-24T07:34:57.473Z,100
2018-08-24T07:35:17.786Z,100
2018-08-24T07:35:37.932Z,100
2018-08-24T07:35:58.161Z,100
2018-08-24T07:36:18.401Z,100
2018-08-24T07:36:38.633Z,100
2018-08-24T07:36:58.941Z,100
2018-08-24T07:37:19.304Z,100
2018-08-24T07:37:39.556Z,100
2018-08-24T07:38:00.428Z,100
2018-08-24T07:38:20.758Z,100
2018-08-24T07:38:41.048Z,100
2018-08-24T07:39:01.284Z,100
2018-08-24T07:39:21.534Z,100
2018-08-24T07:39:41.732Z,100
2018-08-24T07:40:01.988Z,100
2018-08-24T07:40:22.253Z,100
2018-08-24T07:40:42.488Z,100
2018-08-24T07:41:02.655Z,100
2018-08-24T07:41:22.925Z,100
2018-08-24T07:41:43.169Z,100
2018-08-24T07:42:03.364Z,100
2018-08-24T07:42:23.608Z,100
2018-08-24T07:42:43.812Z,100
2018-08-24T07:43:04.030Z,100
2018-08-24T07:43:24.852Z,100
2018-08-24T07:43:45.109Z,100
2018-08-24T07:44:05.316Z,100
2018-08-24T07:44:25.501Z,100
2018-08-24T07:44:45.767Z,100
2018-08-24T07:45:06.006Z,100
2018-08-24T07:45:26.264Z,100
2018-08-24T07:45:46.519Z,100
2018-08-24T07:46:06.853Z,100
2018-08-24T07:46:27.150Z,100
2018-08-24T07:46:47.368Z,100
2018-08-24T07:47:07.548Z,100
2018-08-24T07:47:27.862Z,100
2018-08-24T07:47:48.095Z,100
2018-08-24T07:48:08.340Z,100
2018-08-24T07:48:28.555Z,100
2018-08-24T07:48:48.804Z,100
2018-08-24T07:49:09.096Z,100
2018-08-24T07:49:29.370Z,100
2018-08-24T07:49:49.606Z,100
2018-08-24T07:50:09.899Z,100
2018-08-24T07:50:30.137Z,100
2018-08-24T07:50:50.441Z,100
2018-08-24T07:51:10.690Z,100
2018-08-24T07:51:30.951Z,100
2018-08-24T07:51:51.224Z,100
2018-08-24T07:52:11.507Z,100
2018-08-24T07:52:31.691Z,100
2018-08-24T07:52:51.950Z,100
2018-08-24T07:53:12.231Z,100
2018-08-24T07:53:32.513Z,100
2018-08-24T07:53:52.756Z,100
2018-08-24T07:54:13.022Z,100
2018-08-24T07:54:33.379Z,100
2018-08-24T07:54:53.588Z,100
2018-08-24T07:55:13.836Z,100
2018-08-24T07:55:33.994Z,100
2018-08-24T07:55:54.240Z,100
2018-08-24T08:05:39.444Z,100
2018-08-24T08:05:59.711Z,100
2018-08-24T08:06:19.961Z,100
2018-08-24T08:06:40.197Z,100
2018-08-24T08:07:00.552Z,100
2018-08-24T08:07:20.869Z,100
2018-08-24T08:07:41.137Z,100
2018-08-24T08:08:01.408Z,100
2018-08-24T08:08:21.792Z,100
2018-08-24T08:08:41.999Z,100
2018-08-24T08:09:02.263Z,100
2018-08-24T08:09:22.569Z,100
2018-08-24T08:09:42.906Z,100
2018-08-24T08:10:03.275Z,100
2018-08-24T08:10:23.658Z,100
2018-08-24T08:10:43.867Z,100
2018-08-24T08:11:04.176Z,100
2018-08-24T08:11:24.464Z,100
2018-08-24T08:11:44.712Z,100
2018-08-24T08:12:05.025Z,100
2018-08-24T08:12:25.305Z,100
2018-08-24T08:12:45.545Z,100
2018-08-24T08:13:05.798Z,100
2018-08-24T08:13:26.113Z,100
2018-08-24T08:13:46.397Z,100
2018-08-24T08:14:06.686Z,100
2018-08-24T08:14:26.957Z,100
2018-08-24T08:14:47.332Z,100
2018-08-24T08:15:07.667Z,100
2018-08-24T08:15:28.120Z,100
2018-08-24T08:15:48.416Z,100
2018-08-24T08:16:08.674Z,100
2018-08-24T08:16:28.978Z,100
2018-08-24T08:16:49.215Z,100
2018-08-24T08:17:09.608Z,100
2018-08-24T08:17:29.904Z,100
2018-08-24T08:17:50.372Z,98.5
2018-08-24T08:18:10.876Z,98.3
2018-08-24T08:18:31.142Z,98.1
2018-08-24T08:18:51.396Z,98.6
2018-08-24T08:19:11.706Z,99
2018-08-24T08:19:31.973Z,100
2018-08-24T08:19:52.313Z,100
2018-08-24T08:20:12.596Z,100
2018-08-24T08:20:33.624Z,100
2018-08-24T08:20:53.943Z,100
2018-08-24T08:21:14.235Z,100
2018-08-24T08:21:34.396Z,100
2018-08-24T08:21:54.680Z,100
2018-08-24T08:22:16.104Z,100
2018-08-24T08:22:36.373Z,100
2018-08-24T08:22:56.760Z,100
2018-08-24T08:23:36.616Z,100
2018-08-24T08:23:56.839Z,100
2018-08-24T08:24:17.191Z,100
2018-08-24T08:24:37.557Z,100
2018-08-24T08:24:57.904Z,100
2018-08-24T08:25:18.201Z,100
2018-08-24T08:25:38.634Z,100
2018-08-24T08:25:58.956Z,100
2018-08-24T08:26:19.296Z,100
2018-08-24T08:26:39.537Z,100
2018-08-24T08:26:59.776Z,100
2018-08-24T08:27:20.063Z,100
2018-08-24T08:27:40.321Z,100
2018-08-24T08:28:00.692Z,100
2018-08-24T08:28:21.009Z,100
2018-08-24T08:28:41.299Z,100
2018-08-24T08:29:01.620Z,99.2
2018-08-24T08:29:21.852Z,97.5
2018-08-24T08:29:42.098Z,96.4
2018-08-24T08:30:02.344Z,96.7
2018-08-24T08:30:22.744Z,97.4
2018-08-24T08:30:43.044Z,98
2018-08-24T08:31:03.495Z,98.7
2018-08-24T08:31:23.890Z,98.8
2018-08-24T08:31:44.123Z,97.9
2018-08-24T08:32:04.380Z,97.9
2018-08-24T08:32:24.571Z,98.8
2018-08-24T08:32:44.837Z,98.7
2018-08-24T08:33:05.068Z,99
2018-08-24T08:33:25.366Z,99.3
2018-08-24T08:33:45.696Z,100
2018-08-24T08:34:05.910Z,99.6
2018-08-24T08:34:26.266Z,99.5
2018-08-24T08:34:46.531Z,98.8
2018-08-24T08:35:07.697Z,96.8
2018-08-24T08:35:27.994Z,97.4
2018-08-24T08:35:48.204Z,97.3
2018-08-24T08:36:09.101Z,96.5
2018-08-24T08:36:29.329Z,95.8
2018-08-24T08:36:49.684Z,95.1
2018-08-24T08:37:09.953Z,91.4
2018-08-24T08:37:30.257Z,93
2018-08-24T08:37:50.517Z,92.6
2018-08-24T08:38:10.731Z,92.4
2018-08-24T08:38:30.996Z,90.7
2018-08-24T08:38:51.320Z,90
2018-08-24T08:39:12.179Z,90.4
2018-08-24T08:39:32.394Z,90.6
2018-08-24T08:39:52.617Z,91.6
2018-08-24T08:40:12.864Z,92.4
2018-08-24T08:40:33.103Z,93.9
2018-08-24T08:40:53.260Z,93.1
2018-08-24T08:41:13.503Z,92.6
2018-08-24T08:41:33.743Z,91.5
2018-08-24T08:41:54.010Z,92.2
2018-08-24T08:42:15.010Z,94.3
2018-08-24T08:42:35.241Z,93.7
2018-08-24T08:42:55.525Z,94.2
2018-08-24T08:43:15.827Z,94.9
2018-08-24T08:43:36.104Z,94.5
2018-08-24T08:43:56.354Z,91.2
2018-08-24T08:44:16.642Z,90.5
2018-08-24T08:44:36.884Z,90.2
2018-08-24T08:44:57.045Z,90.7
2018-08-24T08:45:17.283Z,90.6
2018-08-24T08:45:37.528Z,90.4
2018-08-24T08:45:57.730Z,90.6
2018-08-24T08:46:18.015Z,90.1
2018-08-24T08:46:38.415Z,89.6
2018-08-24T08:46:58.603Z,90.1
2018-08-24T08:47:18.868Z,91.5
2018-08-24T08:47:39.119Z,94.1
2018-08-24T08:47:59.319Z,96
2018-08-24T08:48:19.604Z,95.2
2018-08-24T08:48:39.788Z,93.9
2018-08-24T08:49:00.030Z,95
2018-08-24T08:49:20.279Z,95
2018-08-24T08:49:40.452Z,95.4
2018-08-24T08:50:00.761Z,94.9
2018-08-24T08:50:20.973Z,95.7
2018-08-24T08:50:41.185Z,95.9
2018-08-24T08:51:01.421Z,92.2
2018-08-24T08:51:21.681Z,91.7
2018-08-24T08:51:41.907Z,94
2018-08-24T08:52:02.086Z,94.4
2018-08-24T08:52:22.275Z,94.7
2018-08-24T08:52:42.523Z,93.9
2018-08-24T08:53:02.748Z,92.4
2018-08-24T08:53:23.074Z,92.6
2018-08-24T08:53:43.362Z,92.3
2018-08-24T08:54:03.550Z,90.6
2018-08-24T08:54:23.764Z,91.6
2018-08-24T08:54:44.017Z,91.8
2018-08-24T08:55:04.214Z,91.7
2018-08-24T08:55:24.414Z,91.9
2018-08-24T08:55:44.705Z,92.4
2018-08-24T08:56:04.933Z,91.9
2018-08-24T08:56:25.429Z,91.2
2018-08-24T08:56:45.722Z,92
2018-08-24T08:57:05.932Z,91.9
2018-08-24T08:57:26.166Z,93
2018-08-24T08:57:46.371Z,92
2018-08-24T08:58:06.701Z,91.8
2018-08-24T08:58:26.904Z,90.9
2018-08-24T08:58:47.085Z,92.9
2018-08-24T08:59:07.280Z,93.1
2018-08-24T08:59:27.496Z,91.7
2018-08-24T08:59:47.653Z,90.5
2018-08-24T09:00:07.885Z,90.9
2018-08-24T09:00:28.142Z,91.7
2018-08-24T09:00:48.389Z,93.5
2018-08-24T09:01:08.635Z,93
2018-08-24T09:01:28.847Z,92.3
2018-08-24T09:01:49.092Z,92.7
2018-08-24T09:02:09.325Z,93.2
2018-08-24T09:02:29.534Z,92.5
2018-08-24T09:02:49.795Z,91.8
2018-08-24T09:03:10.081Z,90.5
2018-08-24T09:03:30.275Z,92.5
2018-08-24T09:03:50.474Z,93.6
2018-08-24T09:04:10.660Z,93.7
2018-08-24T09:04:30.820Z,93.9
2018-08-24T09:04:51.065Z,93.9
2018-08-24T09:05:11.260Z,93.9
2018-08-24T09:05:31.478Z,93.5
2018-08-24T09:05:51.817Z,94.2
2018-08-24T09:06:12.301Z,95.1
2018-08-24T09:06:32.634Z,91.7
2018-08-24T09:06:52.745Z,88.6
2018-08-24T09:07:13.536Z,89.2
2018-08-24T09:07:33.788Z,89.7
2018-08-24T09:07:54.027Z,90.7
2018-08-24T09:08:14.242Z,91.2
2018-08-24T09:08:34.491Z,91.6
2018-08-24T09:08:54.721Z,90.7
2018-08-24T09:09:14.982Z,89.4
2018-08-24T09:09:35.235Z,89.4
2018-08-24T09:09:55.481Z,91.3
2018-08-24T09:10:15.676Z,91.3
2018-08-24T09:10:35.922Z,91
2018-08-24T09:10:56.189Z,91.2
2018-08-24T09:11:16.427Z,89.9
2018-08-24T09:11:36.605Z,90.2
2018-08-24T09:11:56.844Z,88.8
2018-08-24T09:12:17.103Z,88.8
2018-08-24T09:12:37.293Z,89.5
2018-08-24T09:12:57.527Z,89.9
2018-08-24T09:13:17.745Z,90.4
2018-08-24T09:13:37.927Z,90.1
2018-08-24T09:13:58.184Z,90
2018-08-24T09:14:18.377Z,87.5
2018-08-24T09:14:38.596Z,86.5
2018-08-24T09:14:58.793Z,86.4
2018-08-24T09:15:18.956Z,87.7
2018-08-24T09:15:39.244Z,88.3
2018-08-24T09:15:59.527Z,87.7
2018-08-24T09:16:19.719Z,88.2
2018-08-24T09:16:39.977Z,89
2018-08-24T09:17:00.218Z,87.5
2018-08-24T09:17:20.377Z,85.8
2018-08-24T09:17:40.598Z,85.8
2018-08-24T09:18:00.830Z,86
2018-08-24T09:18:21.065Z,86.4
2018-08-24T09:18:41.241Z,87.2
2018-08-24T09:19:01.424Z,88.2
2018-08-24T09:19:21.736Z,88.1
2018-08-24T09:19:41.937Z,89.3
2018-08-24T09:20:02.171Z,89.8
2018-08-24T09:20:22.438Z,88.5
2018-08-24T09:20:42.629Z,87.9
2018-08-24T09:21:02.909Z,86.8
2018-08-24T09:21:23.225Z,86.4
2018-08-24T09:21:43.469Z,84.9
2018-08-24T09:22:03.683Z,84
2018-08-24T09:22:23.885Z,84.7
2018-08-24T09:22:44.117Z,86.2
2018-08-24T09:23:04.386Z,87.5
2018-08-24T09:23:24.715Z,88.5
2018-08-24T09:23:45.056Z,88.4
2018-08-24T09:24:05.358Z,86.8
2018-08-24T09:24:25.578Z,86.5
2018-08-24T09:24:45.795Z,86.1
2018-08-24T09:25:06.067Z,85.6
2018-08-24T09:25:27.085Z,85.2
2018-08-24T09:25:47.551Z,83.2
2018-08-24T09:26:09.262Z,83.5
2018-08-24T09:26:29.487Z,84.8
2018-08-24T09:26:49.709Z,85.3
2018-08-24T09:27:10.028Z,85.9
2018-08-24T09:27:30.221Z,86.4
2018-08-24T09:27:50.409Z,87.2
2018-08-24T09:28:10.691Z,86.8
2018-08-24T09:28:31.101Z,86.6
2018-08-24T09:28:51.408Z,87.8
2018-08-24T09:29:11.634Z,85.7
2018-08-24T09:29:31.876Z,85.9
2018-08-24T09:29:52.176Z,85.8
2018-08-24T09:30:12.399Z,86.8
2018-08-24T09:30:32.672Z,86.6
2018-08-24T09:30:52.854Z,87
2018-08-24T09:31:13.058Z,86.3
2018-08-24T09:31:33.282Z,86.5
2018-08-24T09:31:53.530Z,86.6
2018-08-24T09:32:13.743Z,83.8
2018-08-24T09:32:34.243Z,86.9
2018-08-24T09:32:54.431Z,87.5
2018-08-24T09:33:14.607Z,84.6
2018-08-24T09:33:34.745Z,82.5
2018-08-24T09:33:54.978Z,83.2
2018-08-24T09:34:15.156Z,83.6
2018-08-24T09:34:35.396Z,85.2
2018-08-24T09:34:55.592Z,86
2018-08-24T09:35:15.773Z,84
2018-08-24T09:35:35.993Z,84.4
2018-08-24T09:35:56.224Z,82.1
2018-08-24T09:36:16.414Z,81.3
2018-08-24T09:36:36.586Z,81.7
2018-08-24T09:36:56.848Z,83.3
2018-08-24T09:37:17.273Z,84.7
2018-08-24T09:37:37.428Z,86.1
2018-08-24T09:37:57.689Z,83.3
2018-08-24T09:38:17.948Z,83.1
2018-08-24T09:38:38.101Z,84.2
2018-08-24T09:38:58.293Z,84.7
2018-08-24T09:39:18.461Z,83
2018-08-24T09:39:38.674Z,82.4
2018-08-24T09:39:58.923Z,82.4
2018-08-24T09:40:19.105Z,81.3
2018-08-24T09:40:39.363Z,81.8
2018-08-24T09:40:59.545Z,83.3
2018-08-24T09:41:19.781Z,85.6
2018-08-24T09:41:40.011Z,84.6
2018-08-24T09:42:00.245Z,85.6
2018-08-24T09:42:20.435Z,85.1
2018-08-24T09:42:40.719Z,85.5
2018-08-24T09:43:00.931Z,85.4
2018-08-24T09:43:21.175Z,84.7
2018-08-24T09:43:41.355Z,86.1
2018-08-24T09:44:01.585Z,86.3
2018-08-24T09:44:21.756Z,86.7
2018-08-24T09:44:42.002Z,85.5
2018-08-24T09:45:02.269Z,84.9
2018-08-24T09:45:22.511Z,84.6
2018-08-24T09:45:42.892Z,83.6
2018-08-24T09:46:03.037Z,83.2
2018-08-24T09:46:23.363Z,84.7
2018-08-24T09:46:43.533Z,85.8
2018-08-24T09:47:03.755Z,85.1
2018-08-24T09:47:23.923Z,86
2018-08-24T09:47:44.211Z,85.8
2018-08-24T09:48:04.514Z,81.9
2018-08-24T09:48:24.779Z,82
2018-08-24T09:48:45.077Z,82.6
2018-08-24T09:49:05.491Z,82.8
2018-08-24T09:49:26.095Z,85.1
2018-08-24T09:49:46.294Z,85.2
2018-08-24T09:50:06.507Z,85.6
2018-08-24T09:50:26.833Z,85
2018-08-24T09:50:47.038Z,84.5
2018-08-24T09:51:07.273Z,84.9
2018-08-24T09:51:27.558Z,85
2018-08-24T09:51:47.844Z,83.5
2018-08-24T09:52:08.175Z,83.7
2018-08-24T09:52:28.400Z,83.9
2018-08-24T09:52:48.625Z,83.9
2018-08-24T09:53:08.882Z,84.5
2018-08-24T09:53:29.106Z,84.4
2018-08-24T09:53:49.640Z,82.5
2018-08-24T09:54:10.118Z,81
2018-08-24T09:54:30.319Z,80.9
2018-08-24T09:54:50.576Z,81.5
2018-08-24T09:55:10.789Z,82.5
2018-08-24T09:55:30.929Z,83.7
2018-08-24T09:55:51.090Z,84.8
2018-08-24T09:56:11.456Z,82.1
2018-08-24T09:56:31.679Z,82
2018-08-24T09:56:51.984Z,82.1
2018-08-24T09:57:12.169Z,82.7
2018-08-24T09:57:32.474Z,82.6
2018-08-24T09:57:52.683Z,82.5
2018-08-24T09:58:12.854Z,81.6
2018-08-24T09:58:33.098Z,82.7
2018-08-24T09:58:53.306Z,82.6
2018-08-24T09:59:13.580Z,82.5
2018-08-24T09:59:33.754Z,82.5
2018-08-24T09:59:53.928Z,83.2
2018-08-24T10:00:14.173Z,83.3
2018-08-24T10:00:34.372Z,83.7
2018-08-24T10:00:54.681Z,84.3
2018-08-24T10:01:14.949Z,83.4
2018-08-24T10:01:35.165Z,82.6
2018-08-24T10:01:55.431Z,82.6
2018-08-24T10:02:15.632Z,84
2018-08-24T10:02:35.894Z,84.2
2018-08-24T10:02:56.198Z,83.2
2018-08-24T10:03:16.353Z,83.1
2018-08-24T10:03:36.609Z,82
2018-08-24T10:03:56.849Z,83.1
2018-08-24T10:04:17.098Z,83.1
2018-08-24T10:04:37.390Z,83.6
2018-08-24T10:04:57.622Z,84.9
2018-08-24T10:05:17.866Z,85.6
2018-08-24T10:05:38.191Z,84.1
2018-08-24T10:05:58.362Z,82.6
2018-08-24T10:06:18.778Z,82.4
2018-08-24T10:06:39.157Z,82.2
2018-08-24T10:06:59.292Z,82.5
2018-08-24T10:07:19.506Z,83.6
2018-08-24T10:07:39.708Z,84.2
2018-08-24T10:07:59.928Z,83.2
2018-08-24T10:08:20.156Z,83.2
2018-08-24T10:08:40.388Z,83.3
2018-08-24T10:09:01.172Z,83.7
2018-08-24T10:09:21.498Z,83.3
2018-08-24T10:09:41.760Z,83.7
2018-08-24T10:10:01.941Z,83
2018-08-24T10:10:24.804Z,82.2
2018-08-24T10:10:45.043Z,81.6
2018-08-24T10:11:05.220Z,81.7
2018-08-24T10:11:25.436Z,80.3
2018-08-24T10:11:45.707Z,80.1
2018-08-24T10:12:05.909Z,80.5
2018-08-24T10:12:26.747Z,81.4
2018-08-24T10:12:47.600Z,80.9
2018-08-24T10:13:07.853Z,81.6
2018-08-24T10:13:28.209Z,81.6
2018-08-24T10:13:48.279Z,82.6
2018-08-24T10:14:08.441Z,82.2
2018-08-24T10:14:28.727Z,82.6
2018-08-24T10:14:48.973Z,83.1
2018-08-24T10:15:09.196Z,83.1
2018-08-24T10:15:32.141Z,82.7
2018-08-24T10:15:53.442Z,82.4
2018-08-24T10:16:14.428Z,81.8
2018-08-24T10:16:34.676Z,81.5
2018-08-24T10:16:54.917Z,80.5
2018-08-24T10:17:15.190Z,79.7
2018-08-24T10:17:35.367Z,79.7
2018-08-24T10:17:55.560Z,80.3
2018-08-24T10:18:15.832Z,79.5
2018-08-24T10:18:36.025Z,79.2
2018-08-24T10:18:56.269Z,78.8
2018-08-24T10:19:17.909Z,79.9
2018-08-24T10:19:38.145Z,80.1
2018-08-24T10:19:58.332Z,80.6
2018-08-24T10:20:18.583Z,80.9
2018-08-24T10:20:38.828Z,81.6
2018-08-24T10:20:59.048Z,79.1
2018-08-24T10:21:20.010Z,78.2
2018-08-24T10:21:40.403Z,78.2
2018-08-24T10:22:00.626Z,78.1
2018-08-24T10:22:21.550Z,79
2018-08-24T10:22:41.713Z,78.9
2018-08-24T10:23:01.965Z,79
2018-08-24T10:23:22.205Z,79.1
2018-08-24T10:23:42.468Z,81.2
2018-08-24T10:24:02.669Z,81.7
2018-08-24T10:24:23.192Z,82.2
2018-08-24T10:24:43.435Z,81.8
2018-08-24T10:25:03.667Z,81.7
2018-08-24T10:25:23.899Z,81.4
2018-08-24T10:25:44.109Z,81.5
2018-08-24T10:26:05.122Z,79.8
2018-08-24T10:26:25.384Z,78.4
2018-08-24T10:26:45.708Z,78.5
2018-08-24T10:27:06.024Z,77.8
2018-08-24T10:27:26.226Z,77.4
2018-08-24T10:27:46.483Z,77.2
2018-08-24T10:28:06.693Z,77
2018-08-24T10:28:26.919Z,77.4
2018-08-24T10:28:47.133Z,77.4
2018-08-24T10:29:07.336Z,78.2
2018-08-24T10:29:28.529Z,79.1
2018-08-24T10:29:48.611Z,80.3
2018-08-24T10:30:08.811Z,79.1
2018-08-24T10:30:29.078Z,79.1
2018-08-24T10:30:49.321Z,78.5
2018-08-24T10:31:09.522Z,77.6
2018-08-24T10:31:30.643Z,77.5
2018-08-24T10:31:50.973Z,79.2
2018-08-24T10:32:11.193Z,79.1
2018-08-24T10:32:31.342Z,79.3
2018-08-24T10:32:51.518Z,79.5
2018-08-24T10:33:11.737Z,79.3
2018-08-24T10:33:31.935Z,79.5
2018-08-24T10:33:52.231Z,77.4
2018-08-24T10:34:12.999Z,77.6
2018-08-24T10:34:33.157Z,76.4
2018-08-24T10:34:53.430Z,76.8
2018-08-24T10:35:13.733Z,77.1
2018-08-24T10:35:34.028Z,78.1
2018-08-24T10:35:54.281Z,75.4
2018-08-24T10:36:16.084Z,75.9
2018-08-24T10:36:36.259Z,76.7
2018-08-24T10:36:56.522Z,76.2
2018-08-24T10:37:16.745Z,75.8
2018-08-24T10:37:36.978Z,75.2
2018-08-24T10:37:58.735Z,76
2018-08-24T10:38:19.701Z,76.9
2018-08-24T10:38:39.866Z,78.1
2018-08-24T10:39:00.166Z,78.7
2018-08-24T10:39:20.598Z,77.1
2018-08-24T10:39:42.051Z,78.4
2018-08-24T10:40:02.275Z,79.1
2018-08-24T10:40:22.449Z,78.5
2018-08-24T10:40:42.738Z,77.8
2018-08-24T10:41:02.978Z,78.4
2018-08-24T10:41:23.210Z,78.4
2018-08-24T10:41:43.472Z,78.7
2018-08-24T10:42:03.708Z,78.8
2018-08-24T10:42:23.918Z,78.8
2018-08-24T10:42:44.154Z,78.3
2018-08-24T10:43:04.387Z,78.9
2018-08-24T10:43:25.269Z,77.8
2018-08-24T10:43:45.472Z,78
2018-08-24T10:44:05.655Z,78.2
2018-08-24T10:44:25.915Z,78.1
2018-08-24T10:44:46.127Z,78.9
2018-08-24T10:45:06.372Z,79.8
2018-08-24T10:45:27.502Z,80.7
2018-08-24T10:45:47.769Z,80.4
2018-08-24T10:46:08.007Z,79.6
2018-08-24T10:46:28.243Z,78.4
2018-08-24T10:46:48.446Z,78.3
2018-08-24T10:47:08.681Z,78
2018-08-24T10:47:28.960Z,78.6
2018-08-24T10:47:49.253Z,79.5
2018-08-24T10:48:09.582Z,78.7
2018-08-24T10:48:29.814Z,79.4
2018-08-24T10:48:49.997Z,78.7
2018-08-24T10:49:10.264Z,79.2
2018-08-24T10:49:30.791Z,79.3
2018-08-24T10:49:50.954Z,80.3
2018-08-24T10:50:12.326Z,80.3
2018-08-24T10:50:32.512Z,79.9
2018-08-24T10:50:52.750Z,79.6
2018-08-24T10:51:13.046Z,79.7
2018-08-24T10:51:33.284Z,80.4
2018-08-24T10:51:53.631Z,81.3
2018-08-24T10:52:13.903Z,80.9
2018-08-24T10:52:34.159Z,80.8
2018-08-24T10:52:54.386Z,80.1
2018-08-24T10:53:14.592Z,80.5
2018-08-24T10:53:34.818Z,80.5
2018-08-24T10:53:54.996Z,81.3
2018-08-24T10:54:15.809Z,80.9
2018-08-24T10:54:37.338Z,77.4
2018-08-24T10:54:57.643Z,77.9
2018-08-24T10:55:18.817Z,78.6
2018-08-24T10:55:39.113Z,79.7
2018-08-24T10:55:59.708Z,81
2018-08-24T10:56:20.129Z,79.3
2018-08-24T10:56:40.426Z,79.8
2018-08-24T10:57:00.748Z,80.7
2018-08-24T10:57:21.068Z,80.1
2018-08-24T10:57:41.267Z,78.7
2018-08-24T10:58:01.514Z,79.6
2018-08-24T10:58:21.807Z,80.8
2018-08-24T10:58:42.058Z,80.7
2018-08-24T10:59:02.361Z,81
2018-08-24T10:59:23.706Z,79.9
2018-08-24T10:59:44.031Z,79.1
2018-08-24T11:00:04.260Z,79.6
2018-08-24T11:00:26.187Z,80.3
2018-08-24T11:00:46.477Z,80.5
2018-08-24T11:01:06.712Z,80.2
2018-08-24T11:01:27.007Z,79.8
2018-08-24T11:01:47.313Z,79.8
2018-08-24T11:02:07.565Z,79.9
2018-08-24T11:02:28.045Z,79.2
2018-08-24T11:02:48.253Z,79.9
2018-08-24T11:03:09.189Z,79.5
2018-08-24T11:03:29.419Z,79.6
2018-08-24T11:03:49.637Z,80.6
2018-08-24T11:04:09.863Z,80.8
2018-08-24T11:04:29.995Z,81.1
2018-08-24T11:04:50.226Z,79.3
2018-08-24T11:05:10.394Z,79.3
2018-08-24T11:05:30.997Z,78.7
2018-08-24T11:05:51.118Z,78
2018-08-24T11:06:11.321Z,78
2018-08-24T11:06:32.517Z,78.5
2018-08-24T11:06:53.401Z,79.7
2018-08-24T11:07:13.722Z,79.1
2018-08-24T11:07:34.083Z,77.8
2018-08-24T11:08:14.139Z,77.2
2018-08-24T11:08:34.358Z,77.9
2018-08-24T11:08:54.635Z,78.6
2018-08-24T11:09:14.881Z,78.1
2018-08-24T11:09:35.136Z,78.3
2018-08-24T11:09:56.345Z,78.4
2018-08-24T11:10:16.645Z,78.5
2018-08-24T11:10:37.745Z,78
2018-08-24T11:10:57.966Z,78.2
2018-08-24T11:11:18.157Z,78.3
2018-08-24T11:11:38.406Z,77.5
2018-08-24T11:11:58.600Z,77.5
2018-08-24T11:12:18.827Z,77.5
2018-08-24T11:12:39.794Z,77.2
2018-08-24T11:13:00.469Z,78.1
2018-08-24T11:13:20.966Z,78.7
2018-08-24T11:13:41.475Z,78.8
2018-08-24T11:14:01.923Z,78.5
2018-08-24T11:14:22.560Z,78.1
2018-08-24T11:14:43.065Z,77.8
2018-08-24T11:15:03.295Z,77.3
2018-08-24T11:15:23.568Z,76.9
2018-08-24T11:15:43.822Z,76.4
2018-08-24T11:16:04.864Z,77.4
2018-08-24T11:16:25.751Z,77
2018-08-24T11:16:45.989Z,75.6
2018-08-24T11:17:06.447Z,75.5
2018-08-24T11:17:26.801Z,75.7
2018-08-24T11:17:47.065Z,77.1
2018-08-24T11:18:07.548Z,77.9
2018-08-24T11:18:27.764Z,78.7
2018-08-24T11:18:48.008Z,78.5
2018-08-24T11:19:09.279Z,79.1
2018-08-24T11:19:29.604Z,79.1
2018-08-24T11:19:50.856Z,79
2018-08-24T11:20:11.867Z,78.3
2018-08-24T11:20:32.323Z,78.9
2018-08-24T11:20:52.544Z,78.8
2018-08-24T11:21:13.002Z,78.2
2018-08-24T11:21:34.173Z,78.2
2018-08-24T11:21:54.459Z,74.4
2018-08-24T11:22:15.199Z,74.6
2018-08-24T11:22:35.449Z,74.6
2018-08-24T11:22:55.932Z,75.7
2018-08-24T11:23:16.170Z,75.8
2018-08-24T11:23:36.464Z,75.7
2018-08-24T11:23:56.682Z,75.3
2018-08-24T11:24:16.925Z,74.6
2018-08-24T11:24:37.153Z,75.2
2018-08-24T11:24:57.349Z,75.7
2018-08-24T11:25:17.695Z,76.3
2018-08-24T11:25:38.135Z,76.7
2018-08-24T11:25:58.542Z,77.3
2018-08-24T11:26:18.927Z,77.4
2018-08-24T11:26:39.202Z,78.1
2018-08-24T11:26:59.661Z,77.6
2018-08-24T11:27:19.835Z,77.4
2018-08-24T11:27:40.064Z,77.6
2018-08-24T11:28:00.301Z,75.7
2018-08-24T11:28:20.487Z,74.2
2018-08-24T11:28:40.874Z,74.5
2018-08-24T11:29:01.100Z,74.3